Time;durP1;ratioP1;P1;durP2;ratioP2;P2;SDS_P1;SDS_P2;PMS_P1;PMS_P2;Temp;Humidity;BMP_temperature;BMP_pressure;BME280_temperature;BME280_humidity;BME280_pressure;Samples;Min_cycle;Max_cycle;Signal;HPM_P1;HPM_P2
2023/06/03 00:00:11;;;;;;;6.50;4.80;;;;;;;23.75;44.65;100121.75;105481;1302;68001;-92
2023/06/03 00:02:36;;;;;;;6.40;4.20;;;;;;;23.75;44.77;100120.20;105495;1298;74095;-86
2023/06/03 00:05:03;;;;;;;5.90;4.30;;;;;;;23.75;44.79;100127.44;105621;1299;68392;-86
2023/06/03 00:07:28;;;;;;;5.30;4.30;;;;;;;23.75;44.97;100127.70;105407;1298;67727;-87
2023/06/03 00:09:54;;;;;;;5.00;4.20;;;;;;;23.75;44.90;100129.80;105296;1298;67202;-87
2023/06/03 00:12:20;;;;;;;5.00;4.20;;;;;;;23.75;44.85;100128.78;105405;1299;67979;-88
2023/06/03 00:14:46;;;;;;;5.00;4.10;;;;;;;23.74;44.97;100132.55;105349;1302;67882;-87
2023/06/03 00:17:12;;;;;;;5.50;4.20;;;;;;;23.74;44.94;100128.02;105400;1298;67618;-86
2023/06/03 00:19:40;;;;;;;4.30;3.90;;;;;;;23.74;45.05;100135.38;105422;1298;67937;-87
2023/06/03 00:22:06;;;;;;;5.30;4.10;;;;;;;23.74;44.94;100136.50;105354;1300;67747;-87
2023/06/03 00:24:32;;;;;;;12.30;4.30;;;;;;;23.73;45.19;100135.59;105447;1300;67747;-87
2023/06/03 00:27:06;;;;;;;4.80;4.10;;;;;;;23.73;45.25;100135.84;105361;1299;67882;-91
2023/06/03 00:29:32;;;;;;;6.90;4.30;;;;;;;23.73;45.25;100135.23;105443;1299;68509;-87
2023/06/03 00:31:58;;;;;;;6.50;4.30;;;;;;;23.72;45.23;100138.59;105340;1299;67776;-86
2023/06/03 00:34:23;;;;;;;4.90;4.30;;;;;;;23.72;45.26;100135.91;105369;1298;67878;-87
2023/06/03 00:36:52;;;;;;;6.00;4.30;;;;;;;23.72;45.30;100133.77;105374;1300;74350;-87
2023/06/03 00:39:18;;;;;;;7.20;4.00;;;;;;;23.72;45.32;100131.61;105437;1299;67795;-87
2023/06/03 00:41:43;;;;;;;5.50;4.20;;;;;;;23.71;45.32;100128.44;105379;1299;67863;-87
2023/06/03 00:44:09;;;;;;;5.50;3.90;;;;;;;23.71;45.36;100128.27;105429;1299;67866;-87
2023/06/03 00:46:35;;;;;;;5.10;4.00;;;;;;;23.71;45.40;100125.04;105352;1299;68191;-87
2023/06/03 00:49:01;;;;;;;5.20;4.10;;;;;;;23.70;45.40;100123.55;105384;1300;67939;-87
2023/06/03 00:51:27;;;;;;;5.00;4.00;;;;;;;23.70;45.38;100125.93;105384;1300;67967;-87
2023/06/03 00:54:02;;;;;;;4.30;3.90;;;;;;;23.70;45.46;100120.95;105295;1298;67117;-92
2023/06/03 00:56:28;;;;;;;6.00;4.20;;;;;;;23.70;45.45;100122.34;105374;1298;68921;-87
2023/06/03 00:58:53;;;;;;;7.30;4.10;;;;;;;23.70;45.40;100115.73;105435;1299;67828;-86
2023/06/03 01:01:21;;;;;;;6.10;3.90;;;;;;;23.69;45.51;100111.98;105395;1298;68550;-87
2023/06/03 01:03:47;;;;;;;5.40;4.40;;;;;;;23.68;45.49;100108.36;105418;1300;67733;-87
2023/06/03 01:06:18;;;;;;;5.20;4.00;;;;;;;23.68;45.57;100105.77;105430;1299;67828;-87
2023/06/03 01:09:30;;;;;;;6.30;3.90;;;;;;;23.68;45.49;100100.50;105342;1299;69072;-90
2023/06/03 01:12:04;;;;;;;6.80;4.00;;;;;;;23.66;45.58;100096.42;105808;1299;82999;-88
2023/06/03 01:14:37;;;;;;;5.60;4.00;;;;;;;23.66;45.57;100093.54;105364;1300;67985;-86
2023/06/03 01:17:09;;;;;;;4.60;3.70;;;;;;;23.66;45.61;100094.10;105416;1298;67681;-87
2023/06/03 01:19:47;;;;;;;5.70;4.10;;;;;;;23.65;45.44;100094.59;105352;1299;67700;-87
2023/06/03 01:22:14;;;;;;;4.60;3.90;;;;;;;23.65;45.57;100095.67;105422;1299;67792;-87
2023/06/03 01:24:42;;;;;;;4.50;3.80;;;;;;;23.65;45.50;100098.34;105280;1299;73304;-87
2023/06/03 01:27:10;;;;;;;6.10;4.30;;;;;;;23.65;45.49;100102.86;105398;1299;67938;-87
2023/06/03 01:32:18;;;;;;;8.40;4.10;;;;;;;23.64;45.50;100106.16;105619;1296;67852;-87
2023/06/03 01:34:44;;;;;;;6.90;4.10;;;;;;;23.64;45.55;100107.95;105476;1297;67782;-86
2023/06/03 01:37:10;;;;;;;5.40;4.00;;;;;;;23.64;45.59;100109.25;105424;1297;67239;-87
2023/06/03 01:39:37;;;;;;;5.50;3.80;;;;;;;23.64;45.46;100110.95;105415;1297;69200;-87
2023/06/03 01:42:03;;;;;;;4.50;4.00;;;;;;;23.63;45.54;100112.29;105444;1297;67971;-87
2023/06/03 01:44:29;;;;;;;4.60;3.90;;;;;;;23.62;45.49;100111.53;105462;1297;67921;-87
2023/06/03 01:46:55;;;;;;;4.40;3.80;;;;;;;23.62;45.59;100109.67;105540;1297;67826;-87
2023/06/03 01:49:21;;;;;;;4.60;3.70;;;;;;;23.62;45.54;100111.18;105423;1297;68125;-87
2023/06/03 01:51:46;;;;;;;5.50;3.90;;;;;;;23.62;45.64;100108.91;105526;1300;67123;-87
2023/06/03 01:54:12;;;;;;;5.40;4.00;;;;;;;23.61;45.64;100108.87;105461;1297;67988;-86
2023/06/03 01:56:38;;;;;;;5.30;3.50;;;;;;;23.61;45.48;100113.64;105509;1302;67808;-88
2023/06/03 01:59:04;;;;;;;4.50;3.70;;;;;;;23.60;45.49;100114.80;105384;1297;67801;-87
2023/06/03 02:01:30;;;;;;;5.80;3.60;;;;;;;23.60;45.39;100117.77;105630;1297;67802;-87
2023/06/03 02:03:56;;;;;;;6.00;3.40;;;;;;;23.60;45.43;100124.66;105679;1297;67993;-86
2023/06/03 02:06:21;;;;;;;4.90;3.80;;;;;;;23.60;45.38;100124.20;105843;1297;67933;-86
2023/06/03 02:08:47;;;;;;;5.60;3.80;;;;;;;23.60;45.31;100119.84;105862;1297;67234;-88
2023/06/03 02:11:13;;;;;;;5.20;3.60;;;;;;;23.60;45.37;100124.47;105756;1299;67097;-87
2023/06/03 02:13:38;;;;;;;5.20;3.50;;;;;;;23.60;45.35;100125.19;105741;1297;68402;-87
2023/06/03 02:16:04;;;;;;;5.80;3.80;;;;;;;23.59;45.39;100126.42;105752;1297;67260;-87
2023/06/03 02:18:31;;;;;;;5.00;3.70;;;;;;;23.58;45.26;100127.73;105868;1297;67138;-87
2023/06/03 02:20:57;;;;;;;5.50;4.00;;;;;;;23.58;45.31;100126.29;105619;1297;67784;-87
2023/06/03 02:23:23;;;;;;;5.60;3.90;;;;;;;23.58;45.34;100128.30;105480;1297;67174;-87
2023/06/03 02:25:49;;;;;;;5.10;3.80;;;;;;;23.58;45.27;100129.68;105521;1299;67633;-87
2023/06/03 02:28:16;;;;;;;5.60;3.70;;;;;;;23.57;45.26;100130.15;105608;1299;67952;-87
2023/06/03 02:30:42;;;;;;;6.00;3.70;;;;;;;23.57;45.28;100131.09;105445;1297;74623;-87
2023/06/03 02:33:08;;;;;;;5.10;3.80;;;;;;;23.56;45.28;100133.92;105466;1297;67920;-87
2023/06/03 02:35:34;;;;;;;4.70;3.50;;;;;;;23.57;45.17;100140.70;105467;1297;68945;-93
2023/06/03 02:38:00;;;;;;;6.30;4.30;;;;;;;23.56;45.13;100144.51;105478;1298;67735;-87
2023/06/03 02:40:26;;;;;;;6.30;4.00;;;;;;;23.56;45.19;100152.36;105460;1297;67816;-87
2023/06/03 02:42:52;;;;;;;4.30;3.80;;;;;;;23.56;45.27;100160.27;105408;1297;68954;-87
2023/06/03 02:45:17;;;;;;;4.60;3.70;;;;;;;23.55;45.36;100178.55;105479;1297;67934;-87
2023/06/03 02:47:43;;;;;;;6.40;3.60;;;;;;;23.55;45.34;100193.20;105462;1297;67763;-88
2023/06/03 02:50:09;;;;;;;8.90;4.30;;;;;;;23.55;45.23;100189.09;105479;1297;67836;-87
2023/06/03 02:52:35;;;;;;;6.10;3.60;;;;;;;23.55;45.17;100190.80;105473;1296;67863;-88
2023/06/03 02:55:01;;;;;;;5.70;3.90;;;;;;;23.54;45.27;100203.88;105468;1297;67875;-87
2023/06/03 02:57:27;;;;;;;4.40;3.60;;;;;;;23.54;45.23;100202.36;105484;1297;67950;-87
2023/06/03 02:59:53;;;;;;;6.40;3.60;;;;;;;23.54;45.14;100197.23;105560;1297;67925;-87
2023/06/03 03:05:03;;;;;;;5.20;3.80;;;;;;;23.53;45.18;100198.93;105596;1296;68096;-87
2023/06/03 03:07:32;;;;;;;5.30;3.50;;;;;;;23.52;45.14;100199.61;105435;1299;67805;-87
2023/06/03 03:09:58;;;;;;;6.30;3.50;;;;;;;23.53;45.08;100204.11;105508;1298;67664;-87
2023/06/03 03:12:23;;;;;;;5.50;4.00;;;;;;;23.52;45.10;100206.64;105269;1300;67223;-87
2023/06/03 03:14:52;;;;;;;5.20;3.80;;;;;;;23.52;44.99;100204.64;105372;1300;74405;-88
2023/06/03 03:19:53;;;;;;;4.50;3.40;;;;;;;23.52;44.95;100203.05;105539;1293;67877;-87
2023/06/03 03:22:25;;;;;;;4.10;3.30;;;;;;;23.52;44.98;100209.98;105452;1297;67683;-87
2023/06/03 03:24:51;;;;;;;5.60;3.70;;;;;;;23.52;44.92;100216.30;105375;1297;68452;-87
2023/06/03 03:27:19;;;;;;;6.60;3.50;;;;;;;23.51;44.86;100218.83;105448;1297;67498;-87
2023/06/03 03:29:45;;;;;;;3.90;3.50;;;;;;;23.52;44.76;100224.77;105474;1297;67831;-87
2023/06/03 03:34:44;;;;;;;4.30;3.30;;;;;;;23.52;44.70;100235.65;105644;1296;67739;-87
2023/06/03 03:37:10;;;;;;;5.60;3.30;;;;;;;23.52;44.74;100238.34;105485;1297;67984;-87
2023/06/03 03:39:40;;;;;;;4.80;3.70;;;;;;;23.51;44.72;100234.70;105456;1297;67895;-87
2023/06/03 03:42:06;;;;;;;4.10;3.50;;;;;;;23.51;44.67;100236.19;105515;1297;67748;-87
2023/06/03 03:44:34;;;;;;;3.60;3.20;;;;;;;23.52;44.67;100236.64;105586;1297;69011;-88
2023/06/03 03:47:01;;;;;;;3.80;3.20;;;;;;;23.52;44.69;100242.44;105335;1297;67715;-87
2023/06/03 03:49:28;;;;;;;7.30;3.90;;;;;;;23.52;44.61;100241.41;105484;1297;67889;-88
2023/06/03 03:51:55;;;;;;;4.20;3.10;;;;;;;23.52;44.45;100243.30;105465;1297;74389;-87
2023/06/03 03:54:23;;;;;;;5.70;4.00;;;;;;;23.52;44.48;100245.27;105475;1297;67738;-87
2023/06/03 03:56:54;;;;;;;5.90;3.50;;;;;;;23.52;44.48;100246.80;105426;1297;67960;-87
2023/06/03 03:59:19;;;;;;;5.10;3.50;;;;;;;23.52;44.52;100247.38;105522;1298;68045;-88
2023/06/03 04:01:45;;;;;;;6.50;3.60;;;;;;;23.51;44.46;100243.12;105512;1297;67183;-87
2023/06/03 04:04:11;;;;;;;5.10;3.50;;;;;;;23.51;44.31;100247.18;105561;1297;67897;-87
2023/06/03 04:06:38;;;;;;;5.20;3.50;;;;;;;23.52;44.34;100252.71;105490;1297;67787;-87
2023/06/03 04:09:07;;;;;;;5.00;4.00;;;;;;;23.52;44.35;100251.98;105539;1299;68615;-87
2023/06/03 04:11:37;;;;;;;4.70;3.10;;;;;;;23.52;44.20;100255.99;105371;1299;67805;-87
2023/06/03 04:16:55;;;;;;;5.20;3.70;;;;;;;23.51;44.19;100258.62;105661;1296;72757;-87
2023/06/03 04:19:27;;;;;;;6.00;3.90;;;;;;;23.51;44.17;100259.85;105536;1299;67690;-87
2023/06/03 04:21:53;;;;;;;4.30;3.80;;;;;;;23.51;44.07;100263.66;105584;1297;67870;-87
2023/06/03 04:24:19;;;;;;;5.60;3.80;;;;;;;23.52;43.95;100268.52;105591;1301;67923;-87
2023/06/03 04:26:45;;;;;;;6.10;3.50;;;;;;;23.51;43.87;100268.79;105410;1297;67097;-88
2023/06/03 04:29:13;;;;;;;5.10;3.50;;;;;;;23.52;43.89;100272.68;105536;1297;67823;-93
2023/06/03 04:31:39;;;;;;;6.50;3.50;;;;;;;23.52;43.87;100277.05;105533;1297;67930;-88
2023/06/03 04:34:05;;;;;;;4.90;3.50;;;;;;;23.52;44.00;100278.64;105464;1296;67164;-87
2023/06/03 04:36:31;;;;;;;4.40;3.40;;;;;;;23.52;43.77;100284.29;105470;1297;68495;-87
2023/06/03 04:38:58;;;;;;;5.10;3.40;;;;;;;23.52;43.75;100285.42;105447;1301;67355;-88
2023/06/03 04:41:27;;;;;;;4.20;3.40;;;;;;;23.52;43.72;100286.03;105475;1303;67790;-88
2023/06/03 04:43:54;;;;;;;4.40;3.30;;;;;;;23.52;43.63;100284.29;105417;1299;68528;-88
2023/06/03 04:46:21;;;;;;;4.70;3.90;;;;;;;23.52;43.56;100289.79;105474;1301;68600;-88
2023/06/03 04:48:48;;;;;;;9.90;4.00;;;;;;;23.52;43.66;100287.83;105522;1301;68029;-88
2023/06/03 04:51:14;;;;;;;6.90;3.50;;;;;;;23.52;43.60;100291.52;105486;1297;67205;-87
2023/06/03 04:53:40;;;;;;;4.00;3.50;;;;;;;23.53;43.50;100294.80;105486;1297;67800;-88
2023/06/03 04:56:06;;;;;;;7.80;3.80;;;;;;;23.53;43.48;100296.91;105458;1297;67742;-93
2023/06/03 04:58:32;;;;;;;5.20;3.50;;;;;;;23.53;43.40;100300.30;105458;1297;67115;-88
2023/06/03 05:00:58;;;;;;;4.80;3.50;;;;;;;23.54;43.36;100306.61;105543;1297;68017;-87
2023/06/03 05:03:25;;;;;;;4.20;3.70;;;;;;;23.54;43.39;100313.14;105462;1297;67825;-87
2023/06/03 05:05:52;;;;;;;5.10;3.80;;;;;;;23.54;43.31;100312.15;105523;1297;68479;-88
2023/06/03 05:08:18;;;;;;;5.10;3.80;;;;;;;23.54;43.44;100314.77;105503;1297;67871;-88
2023/06/03 05:10:43;;;;;;;6.00;3.60;;;;;;;23.54;43.31;100318.20;105410;1298;67862;-87
2023/06/03 05:13:09;;;;;;;4.80;3.70;;;;;;;23.54;43.27;100320.48;105445;1304;67413;-87
2023/06/03 05:15:35;;;;;;;5.50;3.50;;;;;;;23.54;43.34;100324.88;105481;1299;67818;-87
2023/06/03 05:18:04;;;;;;;6.50;3.90;;;;;;;23.54;43.25;100326.73;105479;1300;68101;-87
2023/06/03 05:20:30;;;;;;;6.90;3.70;;;;;;;23.54;43.07;100330.17;105473;1297;67755;-88
2023/06/03 05:23:05;;;;;;;4.00;3.40;;;;;;;23.54;43.11;100329.40;105444;1299;68159;-93
2023/06/03 05:25:31;;;;;;;4.90;3.50;;;;;;;23.54;43.17;100333.52;105543;1297;67733;-88
2023/06/03 05:27:56;;;;;;;8.30;4.00;;;;;;;23.55;43.09;100340.08;105383;1299;67744;-87
2023/06/03 05:30:22;;;;;;;6.00;3.90;;;;;;;23.55;43.02;100348.04;105509;1299;67912;-88
2023/06/03 05:32:48;;;;;;;4.60;3.40;;;;;;;23.55;42.96;100351.02;105549;1298;67852;-87
2023/06/03 05:35:14;;;;;;;4.20;3.50;;;;;;;23.56;42.92;100351.06;105504;1299;67867;-87
2023/06/03 05:37:39;;;;;;;4.70;3.70;;;;;;;23.56;42.97;100354.80;105386;1302;67818;-87
2023/06/03 05:40:06;;;;;;;7.70;3.80;;;;;;;23.56;43.04;100357.32;105450;1305;67102;-87
2023/06/03 05:42:32;;;;;;;6.70;4.20;;;;;;;23.57;42.87;100362.20;105501;1303;67862;-87
2023/06/03 05:44:58;;;;;;;4.50;3.60;;;;;;;23.57;42.94;100366.05;105534;1298;67939;-87
2023/06/03 05:47:23;;;;;;;6.70;3.90;;;;;;;23.57;42.81;100367.84;105537;1297;68186;-87
2023/06/03 05:49:58;;;;;;;4.80;3.50;;;;;;;23.58;42.76;100371.02;105460;1304;68126;-92
2023/06/03 05:52:24;;;;;;;5.20;4.10;;;;;;;23.59;42.82;100378.88;105601;1298;67829;-88
2023/06/03 05:54:50;;;;;;;5.10;3.90;;;;;;;23.59;42.73;100374.84;105433;1301;67944;-87
2023/06/03 05:57:16;;;;;;;4.20;3.80;;;;;;;23.61;42.71;100382.20;105439;1297;67859;-87
2023/06/03 05:59:41;;;;;;;6.30;4.30;;;;;;;23.61;42.69;100383.70;105447;1302;69166;-88
2023/06/03 06:02:07;;;;;;;5.70;3.70;;;;;;;23.62;42.61;100387.17;105446;1297;67741;-87
2023/06/03 06:04:33;;;;;;;6.40;3.80;;;;;;;23.62;42.63;100390.27;105374;1297;67993;-87
2023/06/03 06:06:59;;;;;;;5.70;3.90;;;;;;;23.64;42.65;100388.09;105540;1297;67521;-88
2023/06/03 06:09:28;;;;;;;6.00;3.90;;;;;;;23.64;42.61;100389.68;105448;1297;67972;-88
2023/06/03 06:11:54;;;;;;;6.40;3.60;;;;;;;23.65;42.58;100390.59;105459;1297;67200;-87
2023/06/03 06:14:20;;;;;;;4.30;3.80;;;;;;;23.66;42.50;100391.40;105461;1297;67737;-88
2023/06/03 06:16:46;;;;;;;4.40;3.40;;;;;;;23.66;42.48;100392.69;105374;1297;67831;-88
2023/06/03 06:19:12;;;;;;;5.40;3.70;;;;;;;23.65;42.46;100399.52;105389;1297;67951;-88
2023/06/03 06:21:37;;;;;;;8.40;4.00;;;;;;;23.66;42.45;100401.47;105438;1297;67928;-87
2023/06/03 06:24:03;;;;;;;5.30;3.80;;;;;;;23.66;42.41;100404.34;105497;1297;68575;-88
2023/06/03 06:26:29;;;;;;;6.80;3.80;;;;;;;23.66;42.32;100403.77;105513;1300;67535;-88
2023/06/03 06:28:55;;;;;;;6.00;3.90;;;;;;;23.67;42.43;100402.02;105466;1297;67723;-89
2023/06/03 06:31:21;;;;;;;5.50;3.80;;;;;;;23.67;42.37;100400.27;105441;1297;67489;-88
2023/06/03 06:33:47;;;;;;;5.80;3.60;;;;;;;23.67;42.42;100401.77;105451;1297;68111;-88
2023/06/03 06:36:39;;;;;;;4.80;3.70;;;;;;;23.68;42.37;100406.78;105470;1297;67754;-88
2023/06/03 06:39:06;;;;;;;6.50;3.80;;;;;;;23.68;42.36;100411.71;105563;1297;67071;-88
2023/06/03 06:41:35;;;;;;;5.00;3.80;;;;;;;23.68;42.35;100408.33;105466;1297;68327;-88
2023/06/03 06:44:01;;;;;;;6.40;4.00;;;;;;;23.68;42.25;100408.79;105445;1297;67773;-89
2023/06/03 06:46:27;;;;;;;6.60;3.80;;;;;;;23.69;42.40;100410.27;105468;1297;69038;-88
2023/06/03 06:48:52;;;;;;;5.20;3.70;;;;;;;23.69;42.38;100411.70;105401;1297;67700;-88
2023/06/03 06:51:19;;;;;;;5.50;4.10;;;;;;;23.69;42.43;100410.05;105492;1297;67867;-88
2023/06/03 06:53:48;;;;;;;6.80;3.90;;;;;;;23.70;42.37;100419.45;105427;1297;67845;-89
2023/06/03 06:56:13;;;;;;;5.00;4.10;;;;;;;23.70;42.27;100424.42;105620;1297;68477;-87
2023/06/03 06:58:39;;;;;;;5.50;3.90;;;;;;;23.71;42.25;100421.95;105548;1297;67890;-89
2023/06/03 07:01:05;;;;;;;4.70;3.90;;;;;;;23.70;42.23;100419.39;105442;1297;68133;-88
2023/06/03 07:03:31;;;;;;;6.00;3.80;;;;;;;23.71;42.24;100418.73;105407;1297;67735;-88
2023/06/03 07:05:57;;;;;;;7.30;4.20;;;;;;;23.72;42.28;100424.31;105533;1297;68168;-88
2023/06/03 07:08:23;;;;;;;6.30;3.90;;;;;;;23.72;42.31;100424.61;105082;1302;531293;-88
2023/06/03 07:10:50;;;;;;;5.30;3.70;;;;;;;23.73;42.19;100428.91;105485;1297;67718;-88
2023/06/03 07:13:15;;;;;;;7.40;3.80;;;;;;;23.73;42.15;100427.32;105429;1297;67824;-88
2023/06/03 07:15:41;;;;;;;6.70;4.40;;;;;;;23.74;42.07;100426.96;105418;1297;68351;-87
2023/06/03 07:18:08;;;;;;;7.10;4.10;;;;;;;23.75;42.07;100432.96;105409;1297;68432;-88
2023/06/03 07:20:36;;;;;;;6.20;3.60;;;;;;;23.75;42.11;100434.44;105546;1297;67718;-88
2023/06/03 07:23:02;;;;;;;5.30;4.00;;;;;;;23.76;42.04;100438.17;105392;1300;67129;-89
2023/06/03 07:25:37;;;;;;;6.00;3.90;;;;;;;23.76;41.94;100443.42;105393;1297;67918;-93
2023/06/03 07:28:04;;;;;;;7.30;4.20;;;;;;;23.77;41.91;100443.93;105522;1297;67566;-88
2023/06/03 07:30:32;;;;;;;5.60;4.00;;;;;;;23.77;41.80;100444.27;105519;1297;67667;-87
2023/06/03 07:32:58;;;;;;;6.50;4.20;;;;;;;23.78;41.84;100446.52;105454;1299;74939;-88
2023/06/03 07:35:24;;;;;;;6.70;4.00;;;;;;;23.79;41.92;100445.54;105472;1297;68137;-88
2023/06/03 07:37:50;;;;;;;4.50;3.90;;;;;;;23.79;41.83;100443.79;105493;1297;68510;-88
2023/06/03 07:40:16;;;;;;;6.00;4.00;;;;;;;23.80;41.75;100447.95;105507;1297;67783;-87
2023/06/03 07:42:45;;;;;;;7.40;3.80;;;;;;;23.80;41.74;100444.45;105490;1297;67946;-88
2023/06/03 07:45:14;;;;;;;6.00;4.00;;;;;;;23.81;41.74;100442.29;105440;1304;74557;-87
2023/06/03 07:47:40;;;;;;;4.90;3.90;;;;;;;23.81;41.69;100444.70;105475;1297;67837;-87
2023/06/03 07:50:26;;;;;;;5.20;3.60;;;;;;;23.81;41.59;100450.77;105425;1297;67103;-88
2023/06/03 07:52:58;;;;;;;5.00;3.60;;;;;;;23.80;41.57;100459.91;105451;1297;68497;-88
2023/06/03 07:55:51;;;;;;;5.10;3.90;;;;;;;23.81;41.50;100454.58;105413;1297;67062;-94
2023/06/03 08:00:56;;;;;;;7.40;4.10;;;;;;;23.80;41.46;100459.61;105489;1299;67080;-88
2023/06/03 08:03:23;;;;;;;4.60;3.80;;;;;;;23.81;41.59;100457.44;105353;1299;67926;-88
2023/06/03 08:05:50;;;;;;;5.50;4.00;;;;;;;23.82;41.49;100457.98;105375;1299;67798;-88
2023/06/03 08:08:19;;;;;;;8.50;3.90;;;;;;;23.82;41.35;100457.99;105387;1300;67561;-88
2023/06/03 08:10:46;;;;;;;6.50;3.90;;;;;;;23.83;41.38;100457.06;105501;1302;75393;-88
2023/06/03 08:15:48;;;;;;;4.90;3.90;;;;;;;23.83;41.25;100464.04;105882;1296;67055;-88
2023/06/03 08:18:47;;;;;;;4.30;3.90;;;;;;;23.84;41.04;100464.70;105666;1298;68202;-88
2023/06/03 08:21:16;;;;;;;7.60;3.90;;;;;;;23.84;41.08;100458.17;105792;1297;67141;-88
2023/06/03 08:23:42;;;;;;;6.50;3.60;;;;;;;23.84;41.15;100465.00;105655;1297;74346;-88
2023/06/03 08:26:10;;;;;;;6.90;4.00;;;;;;;23.85;41.23;100468.21;105627;1297;67840;-88
2023/06/03 08:28:38;;;;;;;8.90;4.30;;;;;;;23.85;41.23;100465.09;105424;1297;67741;-88
2023/06/03 08:31:07;;;;;;;6.30;3.80;;;;;;;23.86;41.10;100469.81;105413;1297;67710;-88
2023/06/03 08:33:41;;;;;;;5.70;4.10;;;;;;;23.86;41.08;100468.46;105492;1297;67196;-88
2023/06/03 08:36:07;;;;;;;4.60;3.70;;;;;;;23.86;41.02;100464.66;105494;1297;68549;-88
2023/06/03 08:38:35;;;;;;;7.70;3.70;;;;;;;23.87;41.21;100468.15;105436;1297;67786;-88
2023/06/03 08:41:01;;;;;;;5.50;3.80;;;;;;;23.87;41.11;100460.95;105385;1297;68419;-88
2023/06/03 08:43:29;;;;;;;5.90;3.80;;;;;;;23.88;41.03;100463.10;105399;1297;68502;-88
2023/06/03 08:45:55;;;;;;;7.80;4.00;;;;;;;23.87;41.02;100458.28;105350;1297;67605;-87
2023/06/03 08:48:47;;;;;;;6.30;3.70;;;;;;;23.88;40.91;100462.55;105536;1297;67930;-87
2023/06/03 08:51:15;;;;;;;5.50;4.00;;;;;;;23.88;40.93;100473.17;105467;1297;67858;-87
2023/06/03 08:53:47;;;;;;;6.00;3.80;;;;;;;23.88;40.95;100472.09;105460;1297;67573;-87
2023/06/03 08:56:15;;;;;;;5.00;3.60;;;;;;;23.88;40.79;100472.66;105412;1297;67470;-87
2023/06/03 08:58:45;;;;;;;7.10;4.10;;;;;;;23.89;40.86;100466.89;105517;1297;68339;-87
2023/06/03 09:01:32;;;;;;;5.30;3.70;;;;;;;23.89;40.84;100472.86;105415;1297;74382;-92
2023/06/03 09:03:58;;;;;;;6.70;3.70;;;;;;;23.88;40.90;100466.45;105355;1297;72661;-87
2023/06/03 09:06:32;;;;;;;7.50;3.90;;;;;;;23.90;40.64;100473.47;105512;1297;67953;-87
2023/06/03 09:08:58;;;;;;;4.20;3.80;;;;;;;23.89;40.68;100473.98;105535;1297;67991;-87
2023/06/03 09:11:25;;;;;;;6.20;4.10;;;;;;;23.89;40.64;100474.96;105575;1299;67802;-87
2023/06/03 09:13:52;;;;;;;7.20;3.90;;;;;;;23.89;40.69;100478.10;105490;1297;68631;-87
2023/06/03 09:16:19;;;;;;;6.20;3.60;;;;;;;23.89;40.71;100484.88;105438;1299;67828;-88
2023/06/03 09:18:44;;;;;;;8.40;4.10;;;;;;;23.90;40.72;100489.20;105402;1298;68038;-87
2023/06/03 09:21:10;;;;;;;4.90;4.10;;;;;;;23.90;40.69;100488.58;105479;1298;67784;-87
2023/06/03 09:23:40;;;;;;;6.50;4.10;;;;;;;23.90;40.63;100483.48;105391;1300;68086;-87
2023/06/03 09:26:06;;;;;;;6.80;4.10;;;;;;;23.90;40.78;100482.51;105368;1298;74557;-87
2023/06/03 09:28:33;;;;;;;4.80;3.90;;;;;;;23.90;40.79;100492.94;105411;1299;67914;-88
2023/06/03 09:31:08;;;;;;;6.00;3.60;;;;;;;23.89;40.59;100491.66;105299;1299;67998;-92
2023/06/03 09:33:34;;;;;;;5.40;3.90;;;;;;;23.89;40.68;100492.53;105385;1298;67871;-87
2023/06/03 09:36:08;;;;;;;5.80;3.90;;;;;;;23.89;40.69;100500.70;105448;1300;67756;-87
2023/06/03 09:38:46;;;;;;;5.20;4.00;;;;;;;23.89;40.74;100496.19;105484;1300;75933;-87
2023/06/03 09:41:16;;;;;;;5.20;3.90;;;;;;;23.89;40.83;100502.91;105528;1299;67081;-87
2023/06/03 09:44:01;;;;;;;5.50;4.00;;;;;;;23.89;40.77;100497.83;105416;1298;68006;-88
2023/06/03 09:46:29;;;;;;;5.80;3.90;;;;;;;23.89;40.56;100502.77;105424;1298;67774;-88
2023/06/03 09:49:19;;;;;;;8.00;3.90;;;;;;;23.89;40.63;100506.36;105481;1298;67099;-92
2023/06/03 09:51:48;;;;;;;6.10;4.40;;;;;;;23.89;40.70;100507.34;105457;1299;74290;-88
2023/06/03 09:54:23;;;;;;;7.60;4.10;;;;;;;23.90;40.78;100506.81;105383;1299;68474;-87
2023/06/03 09:56:49;;;;;;;7.20;4.20;;;;;;;23.90;40.66;100497.52;105252;1302;67763;-87
2023/06/03 09:59:15;;;;;;;5.00;4.00;;;;;;;23.90;40.67;100498.13;105339;1300;67619;-87
2023/06/03 10:01:42;;;;;;;4.80;3.80;;;;;;;23.91;40.74;100498.94;105439;1299;67816;-87
2023/06/03 10:04:08;;;;;;;6.50;3.60;;;;;;;23.92;40.89;100499.86;105401;1299;67833;-88
2023/06/03 10:06:39;;;;;;;4.70;3.80;;;;;;;23.92;40.75;100504.17;105302;1299;68057;-87
2023/06/03 10:09:20;;;;;;;6.20;3.80;;;;;;;23.93;40.76;100505.20;105297;1299;67931;-87
2023/06/03 10:11:47;;;;;;;6.80;4.00;;;;;;;23.93;40.82;100506.32;105369;1299;67934;-87
2023/06/03 10:14:14;;;;;;;4.20;3.80;;;;;;;23.93;40.62;100504.93;105238;1305;67928;-87
2023/06/03 10:16:40;;;;;;;5.70;3.80;;;;;;;23.94;40.76;100503.90;105357;1299;74341;-87
2023/06/03 10:19:06;;;;;;;4.80;3.90;;;;;;;23.95;40.73;100501.46;105233;1299;67187;-88
2023/06/03 10:21:31;;;;;;;4.60;3.90;;;;;;;23.95;40.68;100498.52;105272;1299;67767;-87
2023/06/03 10:23:58;;;;;;;4.30;3.60;;;;;;;23.95;40.62;100490.62;105336;1299;67758;-88
2023/06/03 10:26:25;;;;;;;5.80;4.00;;;;;;;23.96;40.65;100494.78;105404;1299;68004;-87
2023/06/03 10:28:51;;;;;;;7.80;4.10;;;;;;;23.96;40.64;100503.46;105267;1299;67089;-87
2023/06/03 10:31:16;;;;;;;8.20;4.00;;;;;;;23.97;40.75;100502.33;105315;1299;67243;-88
2023/06/03 10:36:21;;;;;;;5.00;4.00;;;;;;;23.97;40.62;100505.09;105475;1299;67866;-88
2023/06/03 10:38:47;;;;;;;8.40;4.00;;;;;;;23.98;40.58;100507.61;105375;1300;67984;-87
2023/06/03 10:41:13;;;;;;;5.50;4.10;;;;;;;23.98;40.70;100507.20;105399;1300;67906;-88
2023/06/03 10:43:39;;;;;;;5.40;4.00;;;;;;;23.98;40.55;100510.64;105352;1299;68318;-88
2023/06/03 10:46:04;;;;;;;6.60;4.00;;;;;;;23.99;40.68;100500.57;105436;1299;67836;-88
2023/06/03 10:48:31;;;;;;;6.20;4.20;;;;;;;23.99;40.60;100500.67;105447;1299;67801;-88
2023/06/03 10:51:10;;;;;;;4.70;3.70;;;;;;;23.98;40.43;100502.77;105410;1299;69261;-87
2023/06/03 10:54:01;;;;;;;5.60;3.80;;;;;;;23.99;40.55;100500.16;105352;1299;67865;-87
2023/06/03 10:56:47;;;;;;;4.40;4.00;;;;;;;23.98;40.77;100497.95;105497;1299;67735;-87
2023/06/03 10:59:19;;;;;;;7.00;4.30;;;;;;;23.98;40.72;100493.38;105327;1300;68621;-87
2023/06/03 11:02:01;;;;;;;7.50;4.00;;;;;;;23.99;40.52;100495.31;105478;1299;74421;-87
2023/06/03 11:04:31;;;;;;;6.50;4.20;;;;;;;23.98;40.62;100504.05;105292;1302;67813;-88
2023/06/03 11:06:57;;;;;;;7.70;4.10;;;;;;;23.99;40.66;100508.89;105344;1299;67630;-88
2023/06/03 11:12:15;;;;;;;7.10;4.30;;;;;;;23.99;40.60;100516.59;105669;1297;68379;-87
2023/06/03 11:14:48;;;;;;;5.60;4.20;;;;;;;24.00;40.55;100519.77;105574;1297;68236;-87
2023/06/03 11:17:15;;;;;;;4.60;3.70;;;;;;;24.00;40.54;100527.29;105667;1296;67147;-87
2023/06/03 11:19:44;;;;;;;7.40;3.80;;;;;;;24.01;40.52;100531.08;105475;1299;68358;-88
2023/06/03 11:22:13;;;;;;;5.00;3.90;;;;;;;24.01;40.74;100523.61;105576;1298;67783;-88
2023/06/03 11:24:51;;;;;;;5.50;4.00;;;;;;;24.01;40.76;100523.45;105432;1299;67270;-92
2023/06/03 11:27:17;;;;;;;7.40;3.70;;;;;;;24.02;40.72;100529.16;105429;1299;74283;-87
2023/06/03 11:29:49;;;;;;;7.20;3.90;;;;;;;24.03;40.58;100537.73;105559;1300;67282;-87
2023/06/03 11:32:21;;;;;;;7.50;4.30;;;;;;;24.03;40.55;100532.70;105497;1300;68062;-87
2023/06/03 11:34:48;;;;;;;6.70;3.80;;;;;;;24.03;40.46;100527.05;105439;1300;67898;-88
2023/06/03 11:37:17;;;;;;;6.00;3.70;;;;;;;24.03;40.52;100527.66;105469;1299;67726;-87
2023/06/03 11:40:05;;;;;;;5.50;4.00;;;;;;;24.04;40.60;100533.46;105504;1299;75447;-88
2023/06/03 11:42:54;;;;;;;5.90;4.20;;;;;;;24.03;40.59;100542.45;105522;1298;67755;-92
2023/06/03 11:45:20;;;;;;;6.00;4.10;;;;;;;24.03;40.63;100542.72;105453;1299;67850;-87